sensor_id;sensor_type;location;lat;lon;timestamp;pressure;altitude;pressure_sealevel;temperature;humidity
77003;BME280;65939;50.060;14.288;2023-03-23T00:00:36;96655.66;;;11.69;65.06
77003;BME280;65939;50.060;14.288;2023-03-23T00:02:37;96653.84;;;11.69;64.61
77003;BME280;65939;50.060;14.288;2023-03-23T00:04:38;96653.03;;;11.69;65.14
77003;BME280;65939;50.060;14.288;2023-03-23T00:06:39;96661.53;;;11.71;64.89
77003;BME280;65939;50.060;14.288;2023-03-23T00:08:39;96652.03;;;11.70;64.78
77003;BME280;65939;50.060;14.288;2023-03-23T00:10:48;96652.03;;;11.70;65.07
77003;BME280;65939;50.060;14.288;2023-03-23T00:12:50;96649.41;;;11.70;65.01
77003;BME280;65939;50.060;14.288;2023-03-23T00:14:50;96654.66;;;11.70;64.65
77003;BME280;65939;50.060;14.288;2023-03-23T00:16:54;96660.72;;;11.70;64.69
77003;BME280;65939;50.060;14.288;2023-03-23T00:18:57;96657.09;;;11.71;64.49
77003;BME280;65939;50.060;14.288;2023-03-23T00:20:58;96650.06;;;11.72;63.95
77003;BME280;65939;50.060;14.288;2023-03-23T00:22:59;96651.53;;;11.74;63.69
77003;BME280;65939;50.060;14.288;2023-03-23T00:25:00;96646.09;;;11.76;64.44
77003;BME280;65939;50.060;14.288;2023-03-23T00:27:02;96650.34;;;11.77;64.40
77003;BME280;65939;50.060;14.288;2023-03-23T00:29:04;96658.81;;;11.79;63.84
77003;BME280;65939;50.060;14.288;2023-03-23T00:31:08;96660.44;;;11.80;63.44
77003;BME280;65939;50.060;14.288;2023-03-23T00:33:09;96664.69;;;11.81;63.91
77003;BME280;65939;50.060;14.288;2023-03-23T00:35:13;96655.03;;;11.82;64.39
77003;BME280;65939;50.060;14.288;2023-03-23T00:37:14;96648.00;;;11.82;64.35
77003;BME280;65939;50.060;14.288;2023-03-23T00:39:17;96651.63;;;11.81;63.52
77003;BME280;65939;50.060;14.288;2023-03-23T00:41:18;96641.97;;;11.82;64.20
77003;BME280;65939;50.060;14.288;2023-03-23T00:43:19;96644.75;;;11.80;64.61
77003;BME280;65939;50.060;14.288;2023-03-23T00:45:20;96637.91;;;11.79;64.52
77003;BME280;65939;50.060;14.288;2023-03-23T00:47:22;96633.66;;;11.78;64.37
77003;BME280;65939;50.060;14.288;2023-03-23T00:49:25;96637.44;;;11.75;64.19
77003;BME280;65939;50.060;14.288;2023-03-23T00:51:26;96629.59;;;11.75;63.82
77003;BME280;65939;50.060;14.288;2023-03-23T00:53:26;96628.16;;;11.73;64.67
77003;BME280;65939;50.060;14.288;2023-03-23T00:55:27;96628.16;;;11.73;64.33
77003;BME280;65939;50.060;14.288;2023-03-23T00:57:28;96622.13;;;11.72;64.15
77003;BME280;65939;50.060;14.288;2023-03-23T00:59:28;96621.31;;;11.72;65.00
77003;BME280;65939;50.060;14.288;2023-03-23T01:01:30;96620.13;;;11.74;64.09
77003;BME280;65939;50.060;14.288;2023-03-23T01:03:31;96608.03;;;11.73;64.64
77003;BME280;65939;50.060;14.288;2023-03-23T01:05:36;96612.47;;;11.73;63.96
77003;BME280;65939;50.060;14.288;2023-03-23T01:07:37;96610.84;;;11.72;63.89
77003;BME280;65939;50.060;14.288;2023-03-23T01:09:38;96618.03;;;11.70;64.49
77003;BME280;65939;50.060;14.288;2023-03-23T01:11:45;96610.38;;;11.68;64.44
77003;BME280;65939;50.060;14.288;2023-03-23T01:13:46;96610.75;;;11.65;64.09
77003;BME280;65939;50.060;14.288;2023-03-23T01:15:47;96598.03;;;11.62;64.45
77003;BME280;65939;50.060;14.288;2023-03-23T01:17:47;96603.44;;;11.61;64.83
77003;BME280;65939;50.060;14.288;2023-03-23T01:19:48;96598.56;;;11.58;64.74
77003;BME280;65939;50.060;14.288;2023-03-23T01:21:49;96595.31;;;11.56;64.98
77003;BME280;65939;50.060;14.288;2023-03-23T01:23:50;96590.47;;;11.53;64.46
77003;BME280;65939;50.060;14.288;2023-03-23T01:25:51;96590.81;;;11.49;64.63
77003;BME280;65939;50.060;14.288;2023-03-23T01:27:55;96591.16;;;11.46;65.23
77003;BME280;65939;50.060;14.288;2023-03-23T01:29:56;96593.94;;;11.45;65.26
77003;BME280;65939;50.060;14.288;2023-03-23T01:31:56;96589.91;;;11.42;65.67
77003;BME280;65939;50.060;14.288;2023-03-23T01:33:57;96589.25;;;11.40;65.10
77003;BME280;65939;50.060;14.288;2023-03-23T01:36:02;96596.63;;;11.37;64.85
77003;BME280;65939;50.060;14.288;2023-03-23T01:38:03;96590.31;;;11.31;65.24
77003;BME280;65939;50.060;14.288;2023-03-23T01:40:05;96590.69;;;11.28;64.93
77003;BME280;65939;50.060;14.288;2023-03-23T01:42:08;96581.56;;;11.24;65.16
77003;BME280;65939;50.060;14.288;2023-03-23T01:46:18;96577.06;;;11.18;65.06
77003;BME280;65939;50.060;14.288;2023-03-23T01:48:32;96578.03;;;11.17;65.93
77003;BME280;65939;50.060;14.288;2023-03-23T01:52:47;96565.69;;;11.11;65.52
77003;BME280;65939;50.060;14.288;2023-03-23T01:54:49;96569.28;;;11.10;65.84
77003;BME280;65939;50.060;14.288;2023-03-23T01:57:00;96562.44;;;11.09;65.42
77003;BME280;65939;50.060;14.288;2023-03-23T01:59:01;96565.84;;;11.09;65.71
77003;BME280;65939;50.060;14.288;2023-03-23T02:01:06;96569.28;;;11.10;65.62
77003;BME280;65939;50.060;14.288;2023-03-23T02:03:12;96567.66;;;11.09;66.31
77003;BME280;65939;50.060;14.288;2023-03-23T02:05:22;96570.28;;;11.09;66.13
77003;BME280;65939;50.060;14.288;2023-03-23T02:07:25;96570.09;;;11.10;66.87
77003;BME280;65939;50.060;14.288;2023-03-23T02:09:26;96569.28;;;11.10;65.84
77003;BME280;65939;50.060;14.288;2023-03-23T02:11:26;96573.34;;;11.12;66.00
77003;BME280;65939;50.060;14.288;2023-03-23T02:13:28;96567.13;;;11.13;66.31
77003;BME280;65939;50.060;14.288;2023-03-23T02:34:29;96557.66;;;11.12;66.27
77003;BME280;65939;50.060;14.288;2023-03-23T02:36:42;96549.03;;;11.12;66.25
77003;BME280;65939;50.060;14.288;2023-03-23T02:39:05;96549.03;;;11.12;66.95
77003;BME280;65939;50.060;14.288;2023-03-23T02:41:11;96551.63;;;11.12;66.35
77003;BME280;65939;50.060;14.288;2023-03-23T02:43:26;96547.22;;;11.12;66.91
77003;BME280;65939;50.060;14.288;2023-03-23T02:45:32;96546.22;;;11.13;66.15
77003;BME280;65939;50.060;14.288;2023-03-23T02:47:38;96546.41;;;11.12;66.89
77003;BME280;65939;50.060;14.288;2023-03-23T02:49:43;96544.44;;;11.14;66.19
77003;BME280;65939;50.060;14.288;2023-03-23T02:51:47;96546.06;;;11.15;66.14
77003;BME280;65939;50.060;14.288;2023-03-23T02:53:53;96540.03;;;11.14;66.54
77003;BME280;65939;50.060;14.288;2023-03-23T02:55:57;96548.66;;;11.15;66.98
77003;BME280;65939;50.060;14.288;2023-03-23T02:57:58;96548.66;;;11.15;66.46
77003;BME280;65939;50.060;14.288;2023-03-23T03:00:04;96548.66;;;11.15;66.31
77003;BME280;65939;50.060;14.288;2023-03-23T03:02:13;96552.09;;;11.15;66.92
77003;BME280;65939;50.060;14.288;2023-03-23T03:04:19;96544.25;;;11.15;66.95
77003;BME280;65939;50.060;14.288;2023-03-23T03:10:59;96546.22;;;11.13;67.20
77003;BME280;65939;50.060;14.288;2023-03-23T03:15:29;96550.03;;;11.11;66.76
77003;BME280;65939;50.060;14.288;2023-03-23T03:17:38;96549.22;;;11.10;66.58
77003;BME280;65939;50.060;14.288;2023-03-23T03:19:48;96550.19;;;11.09;67.12
77003;BME280;65939;50.060;14.288;2023-03-23T03:21:52;96545.94;;;11.08;66.63
77003;BME280;65939;50.060;14.288;2023-03-23T03:23:56;96540.91;;;11.07;66.84
77003;BME280;65939;50.060;14.288;2023-03-23T03:26:04;96536.66;;;11.06;66.98
77003;BME280;65939;50.060;14.288;2023-03-23T03:28:06;96542.88;;;11.05;67.79
77003;BME280;65939;50.060;14.288;2023-03-23T03:30:12;96544.84;;;11.02;67.21
77003;BME280;65939;50.060;14.288;2023-03-23T03:32:20;96545.84;;;11.01;67.72
77003;BME280;65939;50.060;14.288;2023-03-23T03:34:23;96543.22;;;11.01;67.94
77003;BME280;65939;50.060;14.288;2023-03-23T03:36:28;96546.84;;;11.00;67.74
77003;BME280;65939;50.060;14.288;2023-03-23T03:38:42;96543.56;;;10.98;67.49
77003;BME280;65939;50.060;14.288;2023-03-23T03:40:43;96552.41;;;10.97;67.53
77003;BME280;65939;50.060;14.288;2023-03-23T03:42:44;96538.69;;;10.95;67.66
77003;BME280;65939;50.060;14.288;2023-03-23T03:44:46;96550.16;;;10.94;68.14
77003;BME280;65939;50.060;14.288;2023-03-23T03:46:46;96547.72;;;10.93;68.22
77003;BME280;65939;50.060;14.288;2023-03-23T03:48:47;96545.28;;;10.91;68.35
77003;BME280;65939;50.060;14.288;2023-03-23T03:50:48;96544.66;;;10.89;68.14
77003;BME280;65939;50.060;14.288;2023-03-23T03:52:48;96543.84;;;10.89;68.63
77003;BME280;65939;50.060;14.288;2023-03-23T03:54:49;96544.00;;;10.87;68.07
77003;BME280;65939;50.060;14.288;2023-03-23T03:56:50;96543.19;;;10.87;68.52
77003;BME280;65939;50.060;14.288;2023-03-23T03:58:53;96548.41;;;10.87;68.39
77003;BME280;65939;50.060;14.288;2023-03-23T04:00:53;96553.63;;;10.87;68.02
77003;BME280;65939;50.060;14.288;2023-03-23T04:02:57;96544.00;;;10.87;68.39
77003;BME280;65939;50.060;14.288;2023-03-23T04:05:00;96547.41;;;10.88;68.58
77003;BME280;65939;50.060;14.288;2023-03-23T04:07:03;96545.00;;;10.86;68.63
77003;BME280;65939;50.060;14.288;2023-03-23T04:09:05;96550.22;;;10.86;68.57
77003;BME280;65939;50.060;14.288;2023-03-23T04:11:10;96551.03;;;10.87;68.76
77003;BME280;65939;50.060;14.288;2023-03-23T04:13:12;96550.22;;;10.86;68.86
77003;BME280;65939;50.060;14.288;2023-03-23T04:15:13;96557.06;;;10.87;68.34
77003;BME280;65939;50.060;14.288;2023-03-23T04:17:14;96553.63;;;10.87;68.41
77003;BME280;65939;50.060;14.288;2023-03-23T04:19:15;96554.44;;;10.87;68.67
77003;BME280;65939;50.060;14.288;2023-03-23T04:21:17;96558.06;;;10.86;68.50
77003;BME280;65939;50.060;14.288;2023-03-23T04:23:19;96559.06;;;10.85;68.83
77003;BME280;65939;50.060;14.288;2023-03-23T04:25:23;96551.22;;;10.85;68.32
77003;BME280;65939;50.060;14.288;2023-03-23T04:27:25;96563.44;;;10.85;68.33
77003;BME280;65939;50.060;14.288;2023-03-23T04:29:26;96561.66;;;10.85;68.82
77003;BME280;65939;50.060;14.288;2023-03-23T04:31:27;96564.28;;;10.85;68.98
77003;BME280;65939;50.060;14.288;2023-03-23T04:33:29;96565.09;;;10.86;68.80
77003;BME280;65939;50.060;14.288;2023-03-23T04:35:30;96546.97;;;10.84;68.90
77003;BME280;65939;50.060;14.288;2023-03-23T04:37:31;96552.19;;;10.84;69.27
77003;BME280;65939;50.060;14.288;2023-03-23T04:39:31;96550.22;;;10.86;68.80
77003;BME280;65939;50.060;14.288;2023-03-23T04:41:33;96551.03;;;10.87;69.18
77003;BME280;65939;50.060;14.288;2023-03-23T04:43:35;96557.06;;;10.87;68.78
77003;BME280;65939;50.060;14.288;2023-03-23T04:45:41;96552.84;;;10.86;69.31
77003;BME280;65939;50.060;14.288;2023-03-23T04:47:45;96546.81;;;10.86;69.08
77003;BME280;65939;50.060;14.288;2023-03-23T04:49:53;96551.22;;;10.85;69.36
77003;BME280;65939;50.060;14.288;2023-03-23T04:51:53;96549.56;;;10.84;69.15
77003;BME280;65939;50.060;14.288;2023-03-23T04:53:54;96555.59;;;10.85;68.68
77003;BME280;65939;50.060;14.288;2023-03-23T04:55:55;96558.88;;;10.87;69.22
77003;BME280;65939;50.060;14.288;2023-03-23T04:57:57;96562.13;;;10.89;68.63
77003;BME280;65939;50.060;14.288;2023-03-23T05:00:02;96561.75;;;10.92;68.88
77003;BME280;65939;50.060;14.288;2023-03-23T05:02:11;96564.81;;;10.95;68.83
77003;BME280;65939;50.060;14.288;2023-03-23T05:04:13;96573.31;;;10.97;68.72
77003;BME280;65939;50.060;14.288;2023-03-23T05:06:16;96575.38;;;11.02;68.80
77003;BME280;65939;50.060;14.288;2023-03-23T05:08:22;96574.03;;;11.06;68.57
77003;BME280;65939;50.060;14.288;2023-03-23T05:10:23;96577.75;;;11.12;67.89
77003;BME280;65939;50.060;14.288;2023-03-23T05:12:24;96572.63;;;11.18;67.79
77003;BME280;65939;50.060;14.288;2023-03-23T05:14:25;96574.38;;;11.26;67.89
77003;BME280;65939;50.060;14.288;2023-03-23T05:16:25;96566.44;;;11.34;67.80
77003;BME280;65939;50.060;14.288;2023-03-23T05:18:29;96574.22;;;11.42;66.68
77003;BME280;65939;50.060;14.288;2023-03-23T05:20:29;96578.72;;;11.48;66.93
77003;BME280;65939;50.060;14.288;2023-03-23T05:22:30;96579.47;;;11.57;66.57
77003;BME280;65939;50.060;14.288;2023-03-23T05:24:34;96579.56;;;11.64;66.78
77003;BME280;65939;50.060;14.288;2023-03-23T05:26:35;96573.44;;;11.71;66.39
77003;BME280;65939;50.060;14.288;2023-03-23T05:28:35;96561.41;;;11.77;65.28
77003;BME280;65939;50.060;14.288;2023-03-23T05:30:38;96556.47;;;11.82;66.78
77003;BME280;65939;50.060;14.288;2023-03-23T05:32:39;96556.75;;;11.87;66.54
77003;BME280;65939;50.060;14.288;2023-03-23T05:34:40;96556.22;;;11.92;65.83
77003;BME280;65939;50.060;14.288;2023-03-23T05:36:41;96560.09;;;11.96;66.07
77003;BME280;65939;50.060;14.288;2023-03-23T05:38:44;96556.94;;;12.01;65.15
77003;BME280;65939;50.060;14.288;2023-03-23T05:40:48;96557.38;;;12.04;65.00
77003;BME280;65939;50.060;14.288;2023-03-23T05:42:49;96562.06;;;12.09;65.52
77003;BME280;65939;50.060;14.288;2023-03-23T05:44:50;96563.31;;;12.13;64.48
77003;BME280;65939;50.060;14.288;2023-03-23T05:46:50;96559.53;;;12.15;64.97
77003;BME280;65939;50.060;14.288;2023-03-23T05:48:51;96563.38;;;12.19;65.02
77003;BME280;65939;50.060;14.288;2023-03-23T05:50:52;96549.94;;;12.22;64.87
77003;BME280;65939;50.060;14.288;2023-03-23T05:52:54;96552.00;;;12.27;64.45
77003;BME280;65939;50.060;14.288;2023-03-23T05:54:55;96554.88;;;12.32;64.91
77003;BME280;65939;50.060;14.288;2023-03-23T05:56:56;96549.72;;;12.39;64.43
77003;BME280;65939;50.060;14.288;2023-03-23T05:58:58;96543.94;;;12.43;63.85
77003;BME280;65939;50.060;14.288;2023-03-23T06:00:58;96545.81;;;12.50;64.77
77003;BME280;65939;50.060;14.288;2023-03-23T06:02:59;96546.84;;;12.55;63.99
77003;BME280;65939;50.060;14.288;2023-03-23T06:05:01;96537.66;;;12.59;63.44
77003;BME280;65939;50.060;14.288;2023-03-23T06:07:02;96535.47;;;12.63;63.99
77003;BME280;65939;50.060;14.288;2023-03-23T06:09:04;96538.53;;;12.66;63.31
77003;BME280;65939;50.060;14.288;2023-03-23T06:11:04;96527.66;;;12.69;63.91
77003;BME280;65939;50.060;14.288;2023-03-23T06:13:06;96529.91;;;12.73;63.35
77003;BME280;65939;50.060;14.288;2023-03-23T06:15:09;96529.38;;;12.77;63.69
77003;BME280;65939;50.060;14.288;2023-03-23T06:17:10;96542.06;;;12.80;63.43
77003;BME280;65939;50.060;14.288;2023-03-23T06:19:11;96542.31;;;12.85;63.19
77003;BME280;65939;50.060;14.288;2023-03-23T06:21:12;96537.50;;;12.89;63.22
77003;BME280;65939;50.060;14.288;2023-03-23T06:23:13;96543.78;;;12.94;63.40
77003;BME280;65939;50.060;14.288;2023-03-23T06:25:13;96535.38;;;12.99;63.01
77003;BME280;65939;50.060;14.288;2023-03-23T06:27:16;96535.63;;;13.04;63.27
77003;BME280;65939;50.060;14.288;2023-03-23T06:29:17;96540.28;;;13.09;62.99
77003;BME280;65939;50.060;14.288;2023-03-23T06:31:19;96540.53;;;13.14;63.41
77003;BME280;65939;50.060;14.288;2023-03-23T06:33:20;96546.81;;;13.19;62.70
77003;BME280;65939;50.060;14.288;2023-03-23T06:35:21;96545.28;;;13.25;62.38
77003;BME280;65939;50.060;14.288;2023-03-23T06:37:22;96541.91;;;13.31;62.69
77003;BME280;65939;50.060;14.288;2023-03-23T06:39:24;96541.34;;;13.36;62.70
77003;BME280;65939;50.060;14.288;2023-03-23T06:41:25;96540.38;;;13.44;62.35
77003;BME280;65939;50.060;14.288;2023-03-23T06:43:26;96548.50;;;13.49;61.83
77003;BME280;65939;50.060;14.288;2023-03-23T06:45:27;96542.66;;;13.53;62.11
77003;BME280;65939;50.060;14.288;2023-03-23T06:47:28;96550.75;;;13.58;61.57
77003;BME280;65939;50.060;14.288;2023-03-23T06:49:30;96547.75;;;13.61;61.47
77003;BME280;65939;50.060;14.288;2023-03-23T06:51:31;96548.53;;;13.62;61.57
77003;BME280;65939;50.060;14.288;2023-03-23T06:53:32;96550.63;;;13.67;61.11
77003;BME280;65939;50.060;14.288;2023-03-23T06:55:33;96554.47;;;13.71;62.06
77003;BME280;65939;50.060;14.288;2023-03-23T06:57:34;96554.88;;;13.74;60.78
77003;BME280;65939;50.060;14.288;2023-03-23T06:59:34;96560.34;;;13.79;60.91
77003;BME280;65939;50.060;14.288;2023-03-23T07:01:35;96559.59;;;13.85;60.50
77003;BME280;65939;50.060;14.288;2023-03-23T07:03:36;96557.00;;;13.92;60.87
77003;BME280;65939;50.060;14.288;2023-03-23T07:05:38;96558.84;;;13.98;61.22
77003;BME280;65939;50.060;14.288;2023-03-23T07:07:40;96561.47;;;14.05;60.70
77003;BME280;65939;50.060;14.288;2023-03-23T07:09:41;96551.81;;;14.12;60.51
77003;BME280;65939;50.060;14.288;2023-03-23T07:11:42;96564.78;;;14.20;60.84
77003;BME280;65939;50.060;14.288;2023-03-23T07:13:44;96560.38;;;14.27;60.05
77003;BME280;65939;50.060;14.288;2023-03-23T07:15:45;96563.22;;;14.32;60.50
77003;BME280;65939;50.060;14.288;2023-03-23T07:17:47;96564.25;;;14.38;60.54
77003;BME280;65939;50.060;14.288;2023-03-23T07:19:48;96569.72;;;14.43;59.55
77003;BME280;65939;50.060;14.288;2023-03-23T07:21:49;96573.00;;;14.52;59.82
77003;BME280;65939;50.060;14.288;2023-03-23T07:23:50;96572.19;;;14.58;59.85
77003;BME280;65939;50.060;14.288;2023-03-23T07:25:51;96577.28;;;14.66;59.46
77003;BME280;65939;50.060;14.288;2023-03-23T07:27:52;96572.66;;;14.75;59.50
77003;BME280;65939;50.060;14.288;2023-03-23T07:29:53;96573.28;;;14.83;59.31
77003;BME280;65939;50.060;14.288;2023-03-23T07:31:54;96574.69;;;14.93;59.38
77003;BME280;65939;50.060;14.288;2023-03-23T07:33:54;96578.56;;;15.03;58.83
77003;BME280;65939;50.060;14.288;2023-03-23T07:35:58;96574.72;;;15.13;59.32
77003;BME280;65939;50.060;14.288;2023-03-23T07:38:02;96580.00;;;15.19;59.02
77003;BME280;65939;50.060;14.288;2023-03-23T07:40:04;96578.34;;;15.25;58.43
77003;BME280;65939;50.060;14.288;2023-03-23T07:42:14;96579.16;;;15.32;59.10
77003;BME280;65939;50.060;14.288;2023-03-23T07:44:15;96581.00;;;15.38;58.37
77003;BME280;65939;50.060;14.288;2023-03-23T07:46:16;96579.34;;;15.44;58.90
77003;BME280;65939;50.060;14.288;2023-03-23T07:48:17;96570.66;;;15.50;58.62
77003;BME280;65939;50.060;14.288;2023-03-23T07:50:18;96580.78;;;15.60;58.32
77003;BME280;65939;50.060;14.288;2023-03-23T07:52:21;96582.00;;;15.70;58.00
77003;BME280;65939;50.060;14.288;2023-03-23T07:54:23;96584.00;;;15.82;58.24
77003;BME280;65939;50.060;14.288;2023-03-23T07:56:23;96578.09;;;15.93;58.35
77003;BME280;65939;50.060;14.288;2023-03-23T07:58:24;96581.72;;;16.05;57.55
77003;BME280;65939;50.060;14.288;2023-03-23T08:00:25;96576.00;;;16.15;58.03
77003;BME280;65939;50.060;14.288;2023-03-23T08:02:26;96580.81;;;16.24;57.41
77003;BME280;65939;50.060;14.288;2023-03-23T08:04:27;96585.25;;;16.37;57.67
77003;BME280;65939;50.060;14.288;2023-03-23T08:06:28;96565.09;;;16.49;57.84
77003;BME280;65939;50.060;14.288;2023-03-23T08:08:29;96567.69;;;16.63;56.85
77003;BME280;65939;50.060;14.288;2023-03-23T08:10:30;96562.56;;;16.74;56.98
77003;BME280;65939;50.060;14.288;2023-03-23T08:12:31;96567.16;;;16.86;56.58
77003;BME280;65939;50.060;14.288;2023-03-23T08:14:31;96570.56;;;16.93;56.25
77003;BME280;65939;50.060;14.288;2023-03-23T08:16:32;96572.16;;;17.01;56.56
77003;BME280;65939;50.060;14.288;2023-03-23T08:18:35;96565.38;;;17.11;56.55
77003;BME280;65939;50.060;14.288;2023-03-23T08:20:36;96578.06;;;17.21;55.86
77003;BME280;65939;50.060;14.288;2023-03-23T08:22:42;96576.97;;;17.29;55.73
77003;BME280;65939;50.060;14.288;2023-03-23T08:24:43;96581.59;;;17.40;55.47
77003;BME280;65939;50.060;14.288;2023-03-23T08:26:44;96574.41;;;17.47;55.03
77003;BME280;65939;50.060;14.288;2023-03-23T08:28:45;96575.16;;;17.54;54.94
77003;BME280;65939;50.060;14.288;2023-03-23T08:30:45;96587.69;;;17.59;54.76
77003;BME280;65939;50.060;14.288;2023-03-23T08:32:47;96586.00;;;17.64;54.67
77003;BME280;65939;50.060;14.288;2023-03-23T08:34:47;96588.59;;;17.71;54.48
77003;BME280;65939;50.060;14.288;2023-03-23T08:36:49;96592.22;;;17.77;54.30
77003;BME280;65939;50.060;14.288;2023-03-23T08:38:51;96594.44;;;17.80;53.98
77003;BME280;65939;50.060;14.288;2023-03-23T08:41:00;96583.66;;;17.81;54.16
77003;BME280;65939;50.060;14.288;2023-03-23T08:43:01;96591.19;;;17.78;53.70
77003;BME280;65939;50.060;14.288;2023-03-23T08:45:04;96590.81;;;17.74;53.19
77003;BME280;65939;50.060;14.288;2023-03-23T08:47:05;96585.75;;;17.73;53.72
77003;BME280;65939;50.060;14.288;2023-03-23T08:49:06;96581.03;;;17.75;53.02
77003;BME280;65939;50.060;14.288;2023-03-23T08:51:07;96580.88;;;17.76;53.33
77003;BME280;65939;50.060;14.288;2023-03-23T08:53:09;96586.28;;;17.81;53.50
77003;BME280;65939;50.060;14.288;2023-03-23T08:55:10;96576.91;;;17.85;52.65
77003;BME280;65939;50.060;14.288;2023-03-23T08:57:11;96580.75;;;17.89;53.00
77003;BME280;65939;50.060;14.288;2023-03-23T08:59:11;96574.78;;;17.94;53.17
77003;BME280;65939;50.060;14.288;2023-03-23T09:01:13;96571.72;;;17.97;52.95
77003;BME280;65939;50.060;14.288;2023-03-23T09:03:14;96572.44;;;18.04;52.24
77003;BME280;65939;50.060;14.288;2023-03-23T09:05:18;96576.84;;;18.10;52.42
77003;BME280;65939;50.060;14.288;2023-03-23T09:07:19;96573.13;;;18.18;53.17
77003;BME280;65939;50.060;14.288;2023-03-23T09:09:20;96576.38;;;18.32;52.58
77003;BME280;65939;50.060;14.288;2023-03-23T09:11:22;96565.09;;;18.43;52.12
77003;BME280;65939;50.060;14.288;2023-03-23T09:13:22;96563.16;;;18.50;52.20
77003;BME280;65939;50.060;14.288;2023-03-23T09:15:23;96561.69;;;18.54;51.37
77003;BME280;65939;50.060;14.288;2023-03-23T09:17:24;96564.44;;;18.59;51.78
77003;BME280;65939;50.060;14.288;2023-03-23T09:19:25;96557.59;;;18.70;51.90
77003;BME280;65939;50.060;14.288;2023-03-23T09:21:27;96549.13;;;18.80;51.71
77003;BME280;65939;50.060;14.288;2023-03-23T09:23:29;96559.19;;;18.89;50.87
77003;BME280;65939;50.060;14.288;2023-03-23T09:25:30;96563.44;;;19.02;50.73
77003;BME280;65939;50.060;14.288;2023-03-23T09:27:31;96557.72;;;19.17;50.81
77003;BME280;65939;50.060;14.288;2023-03-23T09:29:32;96562.47;;;19.27;50.08
77003;BME280;65939;50.060;14.288;2023-03-23T09:31:32;96564.75;;;19.35;49.51
77003;BME280;65939;50.060;14.288;2023-03-23T09:33:33;96549.22;;;19.38;49.39
77003;BME280;65939;50.060;14.288;2023-03-23T09:35:35;96554.53;;;19.38;49.59
77003;BME280;65939;50.060;14.288;2023-03-23T09:37:39;96574.69;;;19.40;49.56
77003;BME280;65939;50.060;14.288;2023-03-23T09:39:40;96562.94;;;19.35;48.70
77003;BME280;65939;50.060;14.288;2023-03-23T09:44:09;96571.44;;;19.26;49.37
77003;BME280;65939;50.060;14.288;2023-03-23T09:50:41;96579.78;;;18.99;49.26
77003;BME280;65939;50.060;14.288;2023-03-23T09:52:52;96574.38;;;19.06;48.83
77003;BME280;65939;50.060;14.288;2023-03-23T09:54:55;96586.47;;;19.13;49.55
77003;BME280;65939;50.060;14.288;2023-03-23T09:56:59;96579.03;;;19.10;49.06
77003;BME280;65939;50.060;14.288;2023-03-23T09:59:12;96591.06;;;19.06;49.28
77003;BME280;65939;50.060;14.288;2023-03-23T10:01:23;96597.28;;;19.00;49.58
77003;BME280;65939;50.060;14.288;2023-03-23T10:03:31;96600.03;;;18.94;49.02
77003;BME280;65939;50.060;14.288;2023-03-23T10:05:43;96590.66;;;18.79;48.50
77003;BME280;65939;50.060;14.288;2023-03-23T10:07:45;96590.88;;;18.59;48.27
77003;BME280;65939;50.060;14.288;2023-03-23T10:09:51;96593.59;;;18.53;49.07
77003;BME280;65939;50.060;14.288;2023-03-23T10:12:07;96599.34;;;18.50;48.89
77003;BME280;65939;50.060;14.288;2023-03-23T10:14:32;96597.38;;;18.45;48.73
77003;BME280;65939;50.060;14.288;2023-03-23T10:21:50;96581.31;;;18.47;49.78
77003;BME280;65939;50.060;14.288;2023-03-23T10:24:01;96597.88;;;18.54;49.30
77003;BME280;65939;50.060;14.288;2023-03-23T10:28:39;96591.75;;;18.53;49.76
77003;BME280;65939;50.060;14.288;2023-03-23T10:30:52;96593.53;;;18.59;50.42
77003;BME280;65939;50.060;14.288;2023-03-23T10:32:59;96596.31;;;18.64;49.74
77003;BME280;65939;50.060;14.288;2023-03-23T10:35:06;96597.34;;;18.63;49.35
77003;BME280;65939;50.060;14.288;2023-03-23T10:37:12;96586.94;;;18.50;49.21
77003;BME280;65939;50.060;14.288;2023-03-23T10:39:20;96586.66;;;18.40;49.82
77003;BME280;65939;50.060;14.288;2023-03-23T10:41:21;96589.66;;;18.43;49.54
77003;BME280;65939;50.060;14.288;2023-03-23T10:43:23;96589.22;;;18.47;50.03
77003;BME280;65939;50.060;14.288;2023-03-23T10:45:28;96583.28;;;18.51;50.31
77003;BME280;65939;50.060;14.288;2023-03-23T10:47:32;96579.88;;;18.62;51.00
77003;BME280;65939;50.060;14.288;2023-03-23T10:49:50;96582.94;;;18.78;50.30
77003;BME280;65939;50.060;14.288;2023-03-23T10:54:35;96583.44;;;18.86;50.33
77003;BME280;65939;50.060;14.288;2023-03-23T10:56:40;96584.25;;;18.99;50.17
77003;BME280;65939;50.060;14.288;2023-03-23T10:58:41;96583.72;;;19.08;49.96
77003;BME280;65939;50.060;14.288;2023-03-23T11:00:46;96580.97;;;19.15;49.73
77003;BME280;65939;50.060;14.288;2023-03-23T11:05:17;96585.47;;;19.26;50.31
77003;BME280;65939;50.060;14.288;2023-03-23T11:07:24;96591.81;;;19.37;49.79
77003;BME280;65939;50.060;14.288;2023-03-23T11:09:39;96589.28;;;19.42;50.36
77003;BME280;65939;50.060;14.288;2023-03-23T11:11:43;96584.56;;;19.56;50.00
77003;BME280;65939;50.060;14.288;2023-03-23T11:13:48;96581.47;;;19.59;49.63
77003;BME280;65939;50.060;14.288;2023-03-23T11:15:51;96591.84;;;19.60;49.62
77003;BME280;65939;50.060;14.288;2023-03-23T11:18:38;96587.84;;;19.70;49.71
77003;BME280;65939;50.060;14.288;2023-03-23T11:20:19;96581.50;;;19.71;50.06
77003;BME280;65939;50.060;14.288;2023-03-23T11:22:27;96576.78;;;19.84;50.02
77003;BME280;65939;50.060;14.288;2023-03-23T11:24:28;96578.47;;;20.02;49.73
77003;BME280;65939;50.060;14.288;2023-03-23T11:26:35;96575.81;;;20.14;48.85
77003;BME280;65939;50.060;14.288;2023-03-23T11:28:51;96574.19;;;20.13;48.83
77003;BME280;65939;50.060;14.288;2023-03-23T11:30:54;96570.66;;;20.07;49.09
77003;BME280;65939;50.060;14.288;2023-03-23T11:33:00;96570.19;;;20.11;48.47